Time;durP1;ratioP1;P1;durP2;ratioP2;P2;SDS_P1;SDS_P2;PMS_P1;PMS_P2;Temp;Humidity;BMP_temperature;BMP_pressure;BME280_temperature;BME280_humidity;BME280_pressure;Samples;Min_cycle;Max_cycle;Signal;HPM_P1;HPM_P2
2022/01/26 00:07:04;;;;;;;147.10;54.45;;;3.80;99.90;;;;;;5032123;28;20586;-45
2022/01/26 00:09:29;;;;;;;150.75;53.28;;;3.80;99.90;;;;;;5032296;28;20561;-45
2022/01/26 00:11:56;;;;;;;153.38;55.58;;;3.70;99.90;;;;;;5033087;28;20033;-45
2022/01/26 00:14:21;;;;;;;147.80;54.30;;;3.60;99.90;;;;;;5032449;28;20033;-45
2022/01/26 00:16:47;;;;;;;148.85;55.40;;;3.60;99.90;;;;;;5033028;28;20029;-45
2022/01/26 00:19:32;;;;;;;147.23;52.70;;;3.60;99.90;;;;;;5032819;28;20029;-45
2022/01/26 00:21:58;;;;;;;148.18;53.92;;;3.60;99.90;;;;;;5032926;28;20029;-45
2022/01/26 00:27:10;;;;;;;153.55;56.05;;;3.50;99.90;;;;;;5032593;28;20028;-45
2022/01/26 00:29:39;;;;;;;151.70;56.53;;;3.50;99.90;;;;;;5031972;28;20325;-45
2022/01/26 00:40:32;;;;;;;143.05;55.28;;;3.60;99.90;;;;;;5001376;28;20045;-45
2022/01/26 00:43:07;;;;;;;147.82;54.75;;;3.60;99.90;;;;;;5032969;28;20027;-45
2022/01/26 00:45:35;;;;;;;145.75;53.38;;;3.50;99.90;;;;;;5031099;28;20495;-45
2022/01/26 00:48:04;;;;;;;150.65;56.33;;;3.50;99.90;;;;;;5032554;28;20017;-45
2022/01/26 00:50:31;;;;;;;146.65;54.30;;;3.50;99.90;;;;;;5032271;28;20443;-45
2022/01/26 00:52:57;;;;;;;154.27;56.03;;;3.50;99.90;;;;;;5032209;28;20045;-45
2022/01/26 00:55:23;;;;;;;150.35;54.75;;;3.60;99.90;;;;;;5032601;28;20091;-45
2022/01/26 00:57:49;;;;;;;154.15;54.75;;;3.50;99.90;;;;;;5030888;28;20033;-45
2022/01/26 01:00:19;;;;;;;147.65;55.70;;;3.50;99.90;;;;;;5031976;28;20014;-46
2022/01/26 01:02:45;;;;;;;150.70;53.30;;;3.40;99.90;;;;;;5031708;28;20029;-45
2022/01/26 01:05:18;;;;;;;147.65;54.75;;;3.30;99.90;;;;;;5032097;28;20470;-45
2022/01/26 01:07:47;;;;;;;157.05;52.95;;;3.30;99.90;;;;;;5031493;28;20316;-45
2022/01/26 01:10:16;;;;;;;153.73;52.10;;;3.20;99.90;;;;;;5031382;28;20067;-45
2022/01/26 01:12:44;;;;;;;156.50;54.35;;;3.20;99.90;;;;;;5031678;28;20041;-45
2022/01/26 01:15:11;;;;;;;149.63;53.05;;;3.10;99.90;;;;;;5031665;28;20540;-45
2022/01/26 01:17:44;;;;;;;153.88;54.13;;;3.20;99.90;;;;;;5031399;28;20029;-45
2022/01/26 01:20:39;;;;;;;166.65;56.83;;;3.20;99.90;;;;;;5029711;28;20065;-45
2022/01/26 01:30:40;;;;;;;157.15;52.30;;;3.20;99.90;;;;;;5031465;28;20041;-44
2022/01/26 01:33:13;;;;;;;155.32;52.65;;;3.20;99.90;;;;;;5031012;28;20033;-44
2022/01/26 01:35:42;;;;;;;146.95;49.88;;;3.20;99.90;;;;;;5030327;28;20116;-44
2022/01/26 01:38:19;;;;;;;150.63;51.15;;;3.20;99.90;;;;;;5030937;28;20033;-45
2022/01/26 01:40:47;;;;;;;134.63;47.10;;;3.20;99.90;;;;;;5030816;28;20032;-44
2022/01/26 01:43:14;;;;;;;144.48;45.75;;;3.10;99.90;;;;;;5030850;28;20490;-44
2022/01/26 01:45:47;;;;;;;133.35;41.90;;;3.00;99.90;;;;;;5031193;28;20025;-44
2022/01/26 01:48:18;;;;;;;132.38;40.65;;;3.00;99.90;;;;;;5031504;28;20021;-44
2022/01/26 01:50:43;;;;;;;119.40;40.17;;;2.90;99.90;;;;;;5030313;28;20040;-44
2022/01/26 01:53:11;;;;;;;124.65;43.17;;;2.80;99.90;;;;;;5030670;28;20393;-44
2022/01/26 01:55:42;;;;;;;128.85;40.83;;;2.70;99.90;;;;;;5030953;28;20036;-44
2022/01/26 01:58:09;;;;;;;131.05;41.70;;;2.70;99.90;;;;;;5030491;28;20033;-44
2022/01/26 02:00:37;;;;;;;127.30;40.90;;;2.60;99.90;;;;;;5030805;28;20048;-44
2022/01/26 02:03:03;;;;;;;130.93;39.38;;;2.60;99.90;;;;;;5030665;28;20025;-44
2022/01/26 02:05:29;;;;;;;131.57;43.97;;;2.60;99.90;;;;;;5030632;28;20030;-44
2022/01/26 02:07:55;;;;;;;123.95;41.03;;;2.60;99.90;;;;;;5030578;28;20025;-44
2022/01/26 02:10:23;;;;;;;124.25;40.35;;;2.60;99.90;;;;;;5030511;28;20511;-45
2022/01/26 02:12:53;;;;;;;130.63;41.17;;;2.70;99.90;;;;;;5030922;28;20048;-44
2022/01/26 02:15:24;;;;;;;115.45;40.92;;;2.60;99.90;;;;;;5030501;28;20025;-44
2022/01/26 02:21:05;;;;;;;121.47;38.92;;;2.50;99.90;;;;;;5007398;28;20041;-44
2022/01/26 02:56:10;;;;;;;106.15;37.75;;;2.20;99.90;;;;;;5030591;28;20045;-45
2022/01/26 03:03:37;;;;;;;109.40;37.72;;;2.20;99.90;;;;;;5032608;28;20053;-45
2022/01/26 03:06:08;;;;;;;113.82;37.95;;;2.20;99.90;;;;;;5033782;28;20033;-45
2022/01/26 03:08:39;;;;;;;115.63;39.65;;;2.20;99.90;;;;;;5033656;28;20025;-45
2022/01/26 03:11:10;;;;;;;113.07;40.10;;;2.20;99.90;;;;;;5033788;28;20434;-45
2022/01/26 03:13:40;;;;;;;118.70;41.95;;;2.10;99.90;;;;;;5034293;28;20454;-45
2022/01/26 03:16:14;;;;;;;115.38;41.00;;;2.20;99.90;;;;;;5034029;28;20108;-45
2022/01/26 03:19:30;;;;;;;119.05;42.30;;;2.20;99.90;;;;;;5033877;28;20061;-45
2022/01/26 03:21:37;;;;;;;116.32;40.08;;;2.20;99.90;;;;;;5027854;28;20037;-45
2022/01/26 03:34:32;;;;;;;132.10;45.15;;;2.20;99.90;;;;;;5033107;28;20026;-45
2022/01/26 03:37:03;;;;;;;119.85;40.22;;;2.30;99.90;;;;;;5032904;28;20121;-45
2022/01/26 03:39:30;;;;;;;120.00;42.63;;;2.30;99.90;;;;;;5031677;28;20039;-45
2022/01/26 03:42:04;;;;;;;122.38;42.80;;;2.20;99.90;;;;;;5032913;28;20100;-46
2022/01/26 03:44:31;;;;;;;114.65;44.40;;;2.20;99.90;;;;;;5033076;28;20021;-45
2022/01/26 03:46:56;;;;;;;120.88;42.17;;;2.20;99.90;;;;;;5033227;28;20515;-46
2022/01/26 03:49:22;;;;;;;122.60;44.75;;;2.20;99.90;;;;;;5033073;28;20132;-45
2022/01/26 03:51:48;;;;;;;128.98;42.97;;;2.20;99.90;;;;;;5033505;28;20064;-45
2022/01/26 03:54:16;;;;;;;122.18;44.65;;;2.20;99.90;;;;;;5033035;28;20033;-45
2022/01/26 03:56:42;;;;;;;111.57;43.13;;;2.20;99.90;;;;;;5032817;28;20044;-45
2022/01/26 03:59:08;;;;;;;123.65;45.53;;;2.30;99.90;;;;;;5032814;28;20029;-45
2022/01/26 04:01:34;;;;;;;118.35;44.92;;;2.30;99.90;;;;;;5031838;28;20083;-45
2022/01/26 04:04:03;;;;;;;122.53;43.38;;;2.20;99.90;;;;;;5032889;28;20021;-45
2022/01/26 04:06:31;;;;;;;123.53;43.75;;;2.30;99.90;;;;;;5032476;28;20026;-45
2022/01/26 04:08:57;;;;;;;124.25;46.42;;;2.30;99.90;;;;;;5032748;28;20040;-45
2022/01/26 04:14:04;;;;;;;136.55;48.25;;;2.20;99.90;;;;;;5032319;28;20021;-45
2022/01/26 04:16:29;;;;;;;134.30;47.90;;;2.20;99.90;;;;;;5032462;28;20029;-45
2022/01/26 04:18:56;;;;;;;125.03;44.97;;;2.20;99.90;;;;;;5032590;28;20037;-45
2022/01/26 04:21:54;;;;;;;122.38;43.60;;;2.20;99.90;;;;;;5033198;28;20025;-45
2022/01/26 04:24:17;;;;;;;128.43;44.95;;;2.20;99.90;;;;;;5033125;28;20096;-44
2022/01/26 04:26:49;;;;;;;127.35;45.45;;;2.30;99.90;;;;;;5031380;28;20032;-44
2022/01/26 04:29:21;;;;;;;122.32;43.55;;;2.20;99.90;;;;;;5031763;28;20045;-44
2022/01/26 04:31:47;;;;;;;126.43;45.65;;;2.20;99.90;;;;;;5032306;28;20053;-44
2022/01/26 04:34:12;;;;;;;125.60;45.72;;;2.20;99.90;;;;;;5032590;28;20479;-44
2022/01/26 04:36:45;;;;;;;136.63;45.72;;;2.30;99.90;;;;;;5033226;28;20029;-44
2022/01/26 04:39:16;;;;;;;125.93;45.75;;;2.30;99.90;;;;;;5032697;28;20047;-44
2022/01/26 04:41:49;;;;;;;127.07;45.55;;;2.30;99.90;;;;;;5031369;28;20028;-45
2022/01/26 04:44:22;;;;;;;;;;;2.20;99.90;;;;;;5032906;28;20427;-44
2022/01/26 04:46:49;;;;;;;121.40;41.15;;;2.20;99.90;;;;;;5032229;28;20388;-44
2022/01/26 04:49:15;;;;;;;128.68;47.50;;;2.20;99.90;;;;;;5031910;28;20053;-44
2022/01/26 04:51:41;;;;;;;124.97;48.00;;;2.10;99.90;;;;;;5031966;28;20026;-45
2022/01/26 04:54:07;;;;;;;132.15;43.33;;;2.20;99.90;;;;;;5032203;28;20043;-44
2022/01/26 04:56:33;;;;;;;124.65;47.65;;;2.20;99.90;;;;;;5031853;28;20025;-45
2022/01/26 04:58:59;;;;;;;132.90;46.90;;;2.30;99.90;;;;;;5031579;28;20033;-44
2022/01/26 05:01:24;;;;;;;129.20;48.38;;;2.30;99.90;;;;;;5031895;28;20124;-44
2022/01/26 05:03:50;;;;;;;132.30;48.22;;;2.30;99.90;;;;;;5032075;28;20097;-44
2022/01/26 05:06:15;;;;;;;122.72;45.85;;;2.30;99.90;;;;;;5031651;28;20421;-44
2022/01/26 05:08:41;;;;;;;121.45;45.90;;;2.30;99.90;;;;;;5031246;28;20013;-45
2022/01/26 05:11:09;;;;;;;130.05;48.20;;;2.30;99.90;;;;;;5031384;28;20037;-45
2022/01/26 05:13:35;;;;;;;131.80;47.35;;;2.30;99.90;;;;;;5031974;28;20040;-45
2022/01/26 05:16:02;;;;;;;126.97;47.75;;;2.30;99.90;;;;;;5029596;28;20033;-44
2022/01/26 05:18:29;;;;;;;131.95;47.35;;;2.30;99.90;;;;;;5030855;28;20036;-44
2022/01/26 05:20:56;;;;;;;129.75;49.08;;;2.30;99.90;;;;;;5031354;28;20477;-44
2022/01/26 05:23:22;;;;;;;132.48;48.50;;;2.40;99.90;;;;;;5031618;28;20444;-44
2022/01/26 05:25:47;;;;;;;137.18;49.40;;;2.40;99.90;;;;;;5030486;28;20080;-44
2022/01/26 05:28:13;;;;;;;139.35;50.80;;;2.40;99.90;;;;;;5030733;28;20064;-44
2022/01/26 05:30:39;;;;;;;137.38;49.10;;;2.30;99.90;;;;;;5031323;28;20022;-44
2022/01/26 05:33:05;;;;;;;128.27;46.80;;;2.30;99.90;;;;;;5030878;28;20040;-45
2022/01/26 05:35:31;;;;;;;127.50;47.13;;;2.30;99.90;;;;;;5031205;28;20033;-45
2022/01/26 05:37:57;;;;;;;140.88;50.10;;;2.30;99.90;;;;;;5031114;28;20029;-45
2022/01/26 05:40:23;;;;;;;138.88;51.15;;;2.30;99.90;;;;;;5029544;28;20525;-44
2022/01/26 05:42:49;;;;;;;135.63;50.45;;;2.40;99.90;;;;;;5031197;28;20437;-44
2022/01/26 05:45:28;;;;;;;127.35;48.00;;;2.40;99.90;;;;;;5031149;28;20022;-45
2022/01/26 05:47:54;;;;;;;131.18;46.72;;;2.40;99.90;;;;;;5029848;28;20017;-45
2022/01/26 05:50:20;;;;;;;133.65;48.83;;;2.50;99.90;;;;;;5030972;28;20100;-45
2022/01/26 05:52:46;;;;;;;135.30;48.42;;;2.40;99.90;;;;;;5029981;28;20064;-44
2022/01/26 05:55:11;;;;;;;134.80;47.20;;;2.40;99.90;;;;;;5030659;28;20030;-44
2022/01/26 05:57:39;;;;;;;144.38;51.95;;;2.40;99.90;;;;;;5031556;28;20483;-44
2022/01/26 06:00:06;;;;;;;130.85;48.05;;;2.30;99.90;;;;;;5030979;28;20041;-44
2022/01/26 06:02:32;;;;;;;133.68;49.92;;;2.40;99.90;;;;;;5031294;28;20032;-44
2022/01/26 06:04:58;;;;;;;136.75;50.92;;;2.40;99.90;;;;;;5031005;28;20028;-45
2022/01/26 06:07:24;;;;;;;137.80;49.67;;;2.40;99.90;;;;;;5029451;28;20052;-45
2022/01/26 06:09:49;;;;;;;138.88;52.15;;;2.40;99.90;;;;;;5030255;28;20286;-44
2022/01/26 06:12:15;;;;;;;132.43;48.58;;;2.40;99.90;;;;;;5030879;28;20033;-44
2022/01/26 06:14:40;;;;;;;143.77;51.60;;;2.40;99.90;;;;;;5031026;28;20856;-44
2022/01/26 06:17:07;;;;;;;132.23;50.28;;;2.50;99.90;;;;;;5031101;28;20064;-44
2022/01/26 06:19:33;;;;;;;130.20;50.45;;;2.40;99.90;;;;;;5030856;28;20034;-45
2022/01/26 06:21:58;;;;;;;129.02;48.60;;;2.40;99.90;;;;;;5030572;28;20038;-45
2022/01/26 06:24:24;;;;;;;131.55;47.83;;;2.40;99.90;;;;;;5031129;28;20025;-45
2022/01/26 06:26:50;;;;;;;132.88;47.83;;;2.50;99.90;;;;;;5030876;28;20467;-44
2022/01/26 06:29:15;;;;;;;135.88;49.75;;;2.40;99.90;;;;;;5029947;28;20084;-45
2022/01/26 06:31:43;;;;;;;136.60;51.05;;;2.40;99.90;;;;;;5030673;28;20041;-44
2022/01/26 06:34:11;;;;;;;122.70;47.45;;;2.40;99.90;;;;;;5030714;28;20025;-44
2022/01/26 06:36:42;;;;;;;134.40;50.20;;;2.40;99.90;;;;;;5031206;28;20029;-45
2022/01/26 06:39:09;;;;;;;137.87;49.57;;;2.40;99.90;;;;;;5034095;28;20029;-44
2022/01/26 06:41:35;;;;;;;141.60;50.50;;;2.40;99.90;;;;;;5034275;28;20287;-45
2022/01/26 06:44:08;;;;;;;144.45;52.17;;;2.40;99.90;;;;;;5034902;28;20030;-44
2022/01/26 06:47:32;;;;;;;126.55;47.88;;;2.40;99.90;;;;;;5034483;28;20080;-45
2022/01/26 06:51:51;;;;;;;139.00;50.40;;;2.40;99.90;;;;;;5034812;28;20064;-45
2022/01/26 06:54:17;;;;;;;136.27;52.50;;;2.40;99.90;;;;;;5035198;28;20502;-45
2022/01/26 06:56:44;;;;;;;129.90;49.80;;;2.40;99.90;;;;;;5034386;28;20053;-45
2022/01/26 06:59:11;;;;;;;143.45;51.80;;;2.50;99.90;;;;;;5034387;28;20030;-45
2022/01/26 07:01:37;;;;;;;132.75;52.50;;;2.40;99.90;;;;;;5034491;28;20029;-45
2022/01/26 07:04:03;;;;;;;134.52;50.78;;;2.50;99.90;;;;;;5034858;28;20481;-45
2022/01/26 07:06:28;;;;;;;133.82;51.40;;;2.50;99.90;;;;;;5032896;28;20029;-45
2022/01/26 07:08:54;;;;;;;132.77;51.55;;;2.60;99.90;;;;;;5032513;28;20033;-45
2022/01/26 07:11:19;;;;;;;132.75;48.97;;;2.50;99.90;;;;;;5034522;28;20057;-45
2022/01/26 07:13:46;;;;;;;129.73;48.25;;;2.60;99.90;;;;;;5034803;28;20032;-45
2022/01/26 07:21:40;;;;;;;141.88;49.67;;;2.60;99.90;;;;;;5034221;28;20032;-45
2022/01/26 07:24:05;;;;;;;129.02;50.03;;;2.60;99.90;;;;;;5032883;28;20030;-45
2022/01/26 07:26:31;;;;;;;139.98;51.05;;;2.60;99.90;;;;;;5033813;28;20025;-45
2022/01/26 07:29:00;;;;;;;137.02;51.22;;;2.60;99.90;;;;;;5034097;28;20133;-45
2022/01/26 07:31:26;;;;;;;127.97;50.13;;;2.60;99.90;;;;;;5033593;28;20025;-45
2022/01/26 07:33:56;;;;;;;131.65;49.47;;;2.60;99.90;;;;;;5033656;28;20038;-45
2022/01/26 07:36:22;;;;;;;126.18;46.35;;;2.60;99.90;;;;;;5033274;28;20037;-45
2022/01/26 07:38:50;;;;;;;131.68;48.75;;;2.60;99.90;;;;;;5033386;28;20025;-45
2022/01/26 07:41:16;;;;;;;137.35;50.30;;;2.70;99.90;;;;;;5033048;28;20035;-45
2022/01/26 07:43:42;;;;;;;134.88;51.90;;;2.80;99.90;;;;;;5028666;28;20026;-45
2022/01/26 07:46:12;;;;;;;143.43;52.88;;;2.80;99.90;;;;;;5014839;28;20030;-45
2022/01/26 07:48:38;;;;;;;142.77;52.58;;;2.80;99.90;;;;;;5013191;28;20022;-45
2022/01/26 07:51:03;;;;;;;117.03;49.17;;;2.90;99.90;;;;;;5011360;28;20391;-45
2022/01/26 07:53:29;;;;;;;124.10;50.17;;;2.90;99.90;;;;;;5013530;28;20033;-45
2022/01/26 07:55:56;;;;;;;121.55;48.33;;;3.00;99.90;;;;;;5013203;28;20033;-45
2022/01/26 07:58:22;;;;;;;122.70;49.67;;;3.10;99.90;;;;;;5013244;28;20026;-45
2022/01/26 08:00:48;;;;;;;130.27;51.35;;;3.00;99.90;;;;;;5013540;28;20034;-45
2022/01/26 08:03:14;;;;;;;123.07;47.20;;;3.00;99.90;;;;;;5011892;28;20117;-45
2022/01/26 08:05:40;;;;;;;125.35;50.55;;;2.90;99.90;;;;;;5013243;28;20530;-45
2022/01/26 08:08:06;;;;;;;138.75;54.03;;;2.90;99.90;;;;;;5013065;28;20391;-45
2022/01/26 08:10:32;;;;;;;133.48;52.15;;;2.90;99.90;;;;;;5011709;28;20034;-45
2022/01/26 08:12:57;;;;;;;132.13;52.20;;;3.00;99.90;;;;;;5014051;28;20434;-46
2022/01/26 08:15:24;;;;;;;140.90;54.53;;;3.00;99.90;;;;;;5013440;28;20399;-45
2022/01/26 08:17:50;;;;;;;127.13;53.65;;;3.10;99.90;;;;;;5012782;28;20021;-46
2022/01/26 08:20:15;;;;;;;125.63;53.65;;;3.20;99.90;;;;;;5013231;28;20029;-45
2022/01/26 08:22:41;;;;;;;131.18;54.17;;;3.30;99.90;;;;;;5012788;28;20080;-45
2022/01/26 08:25:07;;;;;;;126.10;53.30;;;3.30;99.90;;;;;;5013028;28;20033;-45
2022/01/26 08:27:40;;;;;;;125.60;53.10;;;3.30;99.90;;;;;;5012733;28;20626;-45
2022/01/26 08:30:10;;;;;;;;;;;3.30;99.90;;;;;;5014742;28;20028;-45
2022/01/26 08:32:35;;;;;;;122.22;51.28;;;3.20;99.90;;;;;;5021329;28;19909;-45
2022/01/26 08:35:01;;;;;;;117.10;50.85;;;3.20;99.90;;;;;;5024075;28;20084;-45
2022/01/26 08:37:27;;;;;;;121.15;52.25;;;3.20;99.90;;;;;;5027827;28;20051;-45
2022/01/26 08:39:53;;;;;;;115.18;50.42;;;3.20;99.90;;;;;;5017020;28;20033;-45
2022/01/26 08:42:18;;;;;;;114.82;50.40;;;3.20;99.90;;;;;;5012266;28;20022;-45
2022/01/26 08:44:44;;;;;;;101.75;47.47;;;3.20;99.90;;;;;;5013030;28;20034;-45
2022/01/26 08:47:09;;;;;;;103.78;47.60;;;3.20;99.90;;;;;;5013465;28;20022;-45
2022/01/26 08:49:35;;;;;;;101.93;46.15;;;3.30;99.90;;;;;;5012471;28;20010;-45
2022/01/26 08:52:01;;;;;;;101.07;43.08;;;3.40;99.90;;;;;;5012964;28;20084;-46
2022/01/26 08:54:27;;;;;;;93.60;41.55;;;3.40;99.90;;;;;;5011727;28;20033;-45
2022/01/26 08:56:54;;;;;;;91.05;41.75;;;3.40;99.90;;;;;;5010596;28;20022;-46
2022/01/26 08:59:21;;;;;;;94.22;44.03;;;3.40;99.90;;;;;;5011471;28;20030;-45
2022/01/26 09:01:47;;;;;;;92.78;43.67;;;3.60;99.90;;;;;;5010889;28;20515;-45
2022/01/26 09:04:13;;;;;;;89.85;40.80;;;3.50;99.90;;;;;;5011536;28;20030;-45
2022/01/26 09:06:50;;;;;;;81.35;40.35;;;3.60;99.90;;;;;;5010948;28;20033;-45
2022/01/26 09:09:21;;;;;;;87.60;42.47;;;3.60;99.90;;;;;;5011567;28;20057;-46
2022/01/26 09:11:48;;;;;;;85.55;40.75;;;3.60;99.90;;;;;;5011919;28;20470;-45
2022/01/26 09:14:19;;;;;;;89.45;42.08;;;3.70;99.90;;;;;;5011782;28;20510;-45
2022/01/26 09:16:46;;;;;;;92.03;41.40;;;3.60;99.90;;;;;;5011686;28;20647;-45
2022/01/26 09:19:26;;;;;;;87.05;41.15;;;3.60;99.90;;;;;;5011552;28;20034;-45
2022/01/26 09:21:51;;;;;;;102.25;41.13;;;3.50;99.90;;;;;;5011015;28;20495;-45
2022/01/26 09:24:17;;;;;;;86.60;40.78;;;3.40;99.90;;;;;;5011106;28;20022;-45
2022/01/26 09:26:43;;;;;;;82.78;40.13;;;3.40;99.90;;;;;;5011666;28;20519;-45
2022/01/26 09:29:08;;;;;;;87.80;41.08;;;3.40;99.90;;;;;;5011514;28;20050;-45
2022/01/26 09:31:34;;;;;;;95.60;42.60;;;3.40;99.90;;;;;;5010983;28;20036;-45
2022/01/26 09:34:00;;;;;;;96.28;42.90;;;3.30;99.90;;;;;;5011134;28;20105;-45
2022/01/26 09:36:25;;;;;;;99.90;44.20;;;3.40;99.90;;;;;;5011282;28;20034;-45
2022/01/26 09:38:51;;;;;;;96.00;43.80;;;3.50;99.90;;;;;;5010970;28;20036;-46
2022/01/26 09:41:19;;;;;;;91.90;43.65;;;3.40;99.90;;;;;;5010982;28;20555;-45
2022/01/26 09:43:46;;;;;;;97.72;44.15;;;3.40;99.90;;;;;;5011461;28;20038;-46
2022/01/26 09:46:12;;;;;;;96.68;42.45;;;3.40;99.90;;;;;;5011576;28;20026;-45
2022/01/26 09:48:39;;;;;;;100.07;44.95;;;3.50;99.90;;;;;;5010060;28;20399;-45
2022/01/26 09:51:05;;;;;;;100.15;45.75;;;3.40;99.90;;;;;;5011236;28;20069;-45
2022/01/26 09:53:33;;;;;;;93.60;41.30;;;3.40;99.90;;;;;;5010999;28;20137;-45
2022/01/26 09:55:59;;;;;;;100.07;44.75;;;3.50;99.90;;;;;;5009452;28;20550;-45
2022/01/26 09:58:25;;;;;;;106.63;46.63;;;3.40;99.90;;;;;;5011255;28;20026;-45
2022/01/26 10:00:59;;;;;;;107.78;47.00;;;3.40;99.90;;;;;;5011386;28;20029;-45
2022/01/26 10:03:32;;;;;;;103.40;44.05;;;3.30;99.90;;;;;;5011221;28;20025;-45
2022/01/26 10:05:58;;;;;;;113.47;50.47;;;3.30;99.90;;;;;;5011076;28;20022;-45
2022/01/26 10:19:07;;;;;;;111.95;50.47;;;3.40;99.90;;;;;;5031889;28;20029;-45
2022/01/26 10:21:44;;;;;;;113.68;47.45;;;3.40;99.90;;;;;;5032296;28;20028;-45
2022/01/26 10:24:10;;;;;;;114.93;51.15;;;3.40;99.90;;;;;;5014798;28;20033;-45
2022/01/26 10:26:36;;;;;;;107.32;45.65;;;3.40;99.90;;;;;;5015044;28;20026;-45
2022/01/26 10:29:03;;;;;;;115.30;50.22;;;3.40;99.90;;;;;;5015204;28;20049;-45
2022/01/26 10:31:39;;;;;;;107.63;46.78;;;3.40;99.90;;;;;;5015986;28;20426;-45
2022/01/26 10:34:07;;;;;;;109.38;50.17;;;3.40;99.90;;;;;;5015993;28;20034;-45
2022/01/26 10:36:44;;;;;;;116.32;52.65;;;3.30;99.90;;;;;;5015302;28;20055;-45
2022/01/26 10:39:30;;;;;;;114.47;50.92;;;3.30;99.90;;;;;;5015013;28;20057;-45
2022/01/26 10:42:00;;;;;;;113.10;49.55;;;3.30;99.90;;;;;;5014339;28;20052;-45
2022/01/26 10:45:21;;;;;;;107.28;46.92;;;3.40;99.90;;;;;;5014303;28;20163;-45
2022/01/26 10:47:33;;;;;;;116.05;48.75;;;3.40;99.90;;;;;;5000524;28;20029;-45
2022/01/26 10:50:29;;;;;;;107.22;46.30;;;3.40;99.90;;;;;;5014860;28;20022;-45
2022/01/26 10:53:04;;;;;;;115.15;52.00;;;3.40;99.90;;;;;;5014922;28;20026;-45
2022/01/26 10:55:31;;;;;;;106.07;48.35;;;3.40;99.90;;;;;;5015267;28;20025;-46
2022/01/26 10:57:56;;;;;;;102.82;44.03;;;3.50;99.90;;;;;;5014978;28;20041;-45
2022/01/26 11:00:22;;;;;;;107.07;46.38;;;3.40;99.90;;;;;;5013638;28;20103;-46
2022/01/26 11:02:48;;;;;;;103.75;49.63;;;3.40;99.90;;;;;;5014590;28;20022;-45
2022/01/26 11:05:16;;;;;;;93.18;39.72;;;3.40;99.90;;;;;;5014838;28;20026;-45
2022/01/26 11:07:45;;;;;;;104.47;47.55;;;3.30;99.90;;;;;;5014355;28;20028;-45
2022/01/26 11:10:12;;;;;;;101.40;43.85;;;3.40;99.90;;;;;;5013983;28;20487;-45
2022/01/26 11:12:39;;;;;;;104.53;44.70;;;3.40;99.90;;;;;;5014730;28;20022;-45
2022/01/26 11:15:14;;;;;;;106.72;44.55;;;3.30;99.90;;;;;;5013066;28;20026;-45
2022/01/26 11:17:46;;;;;;;113.18;48.42;;;3.30;99.90;;;;;;5014369;28;20499;-46
2022/01/26 11:20:30;;;;;;;97.63;44.67;;;3.40;99.90;;;;;;5013902;28;20112;-45
2022/01/26 11:22:58;;;;;;;96.60;40.45;;;3.40;99.90;;;;;;5014020;28;20026;-45
2022/01/26 11:25:29;;;;;;;102.00;45.97;;;3.40;99.90;;;;;;5016494;28;20037;-46
2022/01/26 11:27:55;;;;;;;104.72;46.20;;;3.50;99.90;;;;;;5013053;28;20049;-45
2022/01/26 11:30:28;;;;;;;105.75;47.67;;;3.40;99.90;;;;;;5013541;28;20537;-45
2022/01/26 11:33:12;;;;;;;89.97;39.50;;;3.50;99.90;;;;;;5011841;28;20050;-46
2022/01/26 11:35:39;;;;;;;;;;;3.60;99.90;;;;;;5014910;28;20029;-45
2022/01/26 11:46:35;;;;;;;95.50;40.05;;;3.50;99.90;;;;;;5013562;28;20033;-45
2022/01/26 11:49:06;;;;;;;106.32;46.95;;;3.50;99.90;;;;;;5012943;28;20042;-45
2022/01/26 11:51:41;;;;;;;106.88;47.70;;;3.50;99.90;;;;;;5012784;28;20398;-45
2022/01/26 11:54:16;;;;;;;110.72;46.80;;;3.50;99.90;;;;;;5013267;28;20022;-45
2022/01/26 11:56:55;;;;;;;108.50;46.78;;;3.40;99.90;;;;;;5013235;28;20069;-45
2022/01/26 11:59:22;;;;;;;110.88;46.88;;;3.50;99.90;;;;;;5013203;28;20060;-45
2022/01/26 12:01:56;;;;;;;112.55;49.00;;;3.50;99.90;;;;;;5013418;28;20022;-45
2022/01/26 12:04:24;;;;;;;115.68;49.00;;;3.50;99.90;;;;;;5013086;28;20034;-45
2022/01/26 12:06:57;;;;;;;114.28;45.95;;;3.60;99.90;;;;;;5013313;28;20052;-45
2022/01/26 12:09:23;;;;;;;118.80;51.65;;;3.50;99.90;;;;;;5011567;28;20369;-45
2022/01/26 12:11:56;;;;;;;112.57;45.03;;;3.50;99.90;;;;;;5011321;28;20029;-45
2022/01/26 12:14:22;;;;;;;;;;;3.50;99.90;;;;;;5012874;28;20204;-45
2022/01/26 12:16:51;;;;;;;118.43;45.90;;;3.40;99.90;;;;;;5013261;28;19963;-45
2022/01/26 12:19:35;;;;;;;117.13;48.35;;;3.40;99.90;;;;;;5011966;28;20030;-45
2022/01/26 12:36:59;;;;;;;116.65;45.17;;;3.40;99.90;;;;;;5013264;28;20056;-45
2022/01/26 12:42:24;;;;;;;125.15;47.17;;;3.50;99.90;;;;;;5012039;28;20083;-45
2022/01/26 12:45:24;;;;;;;120.38;45.78;;;3.50;99.90;;;;;;5012996;28;20059;-45
2022/01/26 12:47:55;;;;;;;119.75;44.10;;;3.50;99.90;;;;;;5010818;28;20253;-45
2022/01/26 12:50:23;;;;;;;125.25;47.95;;;3.40;99.90;;;;;;5011730;28;20045;-45
2022/01/26 12:52:51;;;;;;;121.72;49.15;;;3.40;99.90;;;;;;5011559;28;20026;-45
2022/01/26 12:55:28;;;;;;;130.35;51.75;;;3.50;99.90;;;;;;5010940;28;20549;-45
2022/01/26 12:57:55;;;;;;;114.13;45.28;;;3.50;99.90;;;;;;5012100;28;20101;-45
2022/01/26 13:00:23;;;;;;;129.82;50.88;;;3.50;99.90;;;;;;5011626;28;20014;-45
2022/01/26 13:02:49;;;;;;;128.27;46.90;;;3.40;99.90;;;;;;5011318;28;20034;-46
2022/01/26 13:05:23;;;;;;;122.05;49.15;;;3.50;99.90;;;;;;5010921;28;20389;-45
2022/01/26 13:07:59;;;;;;;127.10;50.92;;;3.50;99.90;;;;;;5012385;28;20026;-45
2022/01/26 13:10:25;;;;;;;115.15;46.63;;;3.50;99.90;;;;;;5010734;28;20026;-46
2022/01/26 13:12:50;;;;;;;113.15;45.30;;;3.60;99.90;;;;;;5011977;28;20380;-45
2022/01/26 13:15:22;;;;;;;119.70;49.20;;;3.70;99.90;;;;;;5012299;28;20037;-45
2022/01/26 13:17:57;;;;;;;112.93;47.63;;;3.70;99.90;;;;;;5011618;28;20026;-45
2022/01/26 13:20:44;;;;;;;107.78;44.80;;;3.60;99.90;;;;;;5010813;28;20037;-45
2022/01/26 13:23:34;;;;;;;107.80;41.92;;;3.60;99.90;;;;;;5010555;28;20033;-45
2022/01/26 13:26:17;;;;;;;109.75;46.58;;;3.50;99.90;;;;;;5011938;28;20034;-45
2022/01/26 13:45:43;;;;;;;102.82;42.80;;;3.70;99.90;;;;;;5011921;28;20061;-45
2022/01/26 13:50:54;;;;;;;106.80;46.85;;;3.60;99.90;;;;;;5011249;28;20041;-45
2022/01/26 13:53:25;;;;;;;99.43;44.80;;;3.60;99.90;;;;;;5009955;28;20042;-45
2022/01/26 13:56:11;;;;;;;99.03;43.30;;;3.60;99.90;;;;;;5011671;28;20034;-45
2022/01/26 13:58:47;;;;;;;90.72;39.45;;;3.60;99.90;;;;;;5012577;28;20030;-45
2022/01/26 14:01:19;;;;;;;105.28;47.22;;;3.60;99.90;;;;;;5027332;28;20033;-46
2022/01/26 14:03:51;;;;;;;93.15;42.10;;;3.60;99.90;;;;;;5019128;28;20029;-45
2022/01/26 14:06:16;;;;;;;103.63;46.17;;;3.60;99.90;;;;;;5011731;28;20029;-45
2022/01/26 14:08:45;;;;;;;100.65;42.00;;;3.50;99.90;;;;;;5012230;28;20022;-45
2022/01/26 14:11:11;;;;;;;96.93;44.72;;;3.60;99.90;;;;;;5011720;28;20041;-45
2022/01/26 14:13:37;;;;;;;98.13;43.25;;;3.60;99.90;;;;;;5009572;28;20546;-45
2022/01/26 14:16:05;;;;;;;92.72;42.88;;;3.60;99.90;;;;;;5009546;28;20160;-45
2022/01/26 14:18:44;;;;;;;96.38;43.75;;;3.60;99.90;;;;;;5010787;28;20077;-45
2022/01/26 14:21:41;;;;;;;95.70;41.53;;;3.60;99.90;;;;;;5010583;28;20075;-45
2022/01/26 14:26:29;;;;;;;97.13;43.83;;;3.70;99.90;;;;;;5010835;28;20018;-45
2022/01/26 14:28:55;;;;;;;90.93;39.20;;;3.70;99.90;;;;;;5010162;28;20101;-45
2022/01/26 14:31:58;;;;;;;95.78;44.60;;;3.80;99.90;;;;;;5009887;28;20034;-46
2022/01/26 14:34:52;;;;;;;;;;;3.80;99.90;;;;;;5011174;28;20037;-45
2022/01/26 15:33:53;;;;;;;93.97;40.22;;;3.60;99.90;;;;;;5013691;28;20033;-45
2022/01/26 15:44:38;;;;;;;91.70;40.45;;;3.60;99.90;;;;;;5014307;28;20022;-45
2022/01/26 15:48:47;;;;;;;83.45;37.35;;;3.70;99.90;;;;;;5012649;28;20089;-45
2022/01/26 15:57:38;;;;;;;97.03;40.70;;;3.70;99.90;;;;;;5013707;28;20033;-45
2022/01/26 16:05:50;;;;;;;85.57;39.15;;;3.60;99.90;;;;;;5012859;28;20180;-45
2022/01/26 16:08:15;;;;;;;95.13;40.88;;;3.60;99.90;;;;;;5012783;28;20026;-45
2022/01/26 16:21:24;;;;;;;94.38;41.65;;;3.70;99.90;;;;;;5012567;28;20407;-45
2022/01/26 18:49:30;;;;;;;74.80;33.25;;;4.00;99.90;;;;;;5013715;28;20416;-45
2022/01/26 18:51:58;;;;;;;74.25;35.80;;;4.00;99.90;;;;;;5014395;28;20045;-45
2022/01/26 18:54:33;;;;;;;69.32;34.45;;;3.90;99.90;;;;;;5014021;28;20040;-45
2022/01/26 18:57:02;;;;;;;71.32;29.88;;;4.00;99.90;;;;;;5012786;28;20093;-45
2022/01/26 18:59:28;;;;;;;68.88;32.45;;;4.00;99.90;;;;;;5013994;28;20018;-45
2022/01/26 19:01:55;;;;;;;73.80;34.13;;;3.90;99.90;;;;;;5014010;28;20386;-45